createdAt,value
2023-04-26T00:02:09.488Z,3.30
2023-04-26T00:04:37.668Z,2.90
2023-04-26T00:07:05.702Z,3.50
2023-04-26T00:09:33.620Z,3.00
2023-04-26T00:12:01.984Z,2.63
2023-04-26T00:14:29.931Z,2.70
2023-04-26T00:16:57.877Z,2.73
2023-04-26T00:19:27.741Z,2.73
2023-04-26T00:21:55.855Z,2.80
2023-04-26T00:24:23.819Z,3.20
2023-04-26T00:26:54.437Z,3.30
2023-04-26T00:29:22.363Z,3.40
2023-04-26T00:31:50.379Z,2.83
2023-04-26T00:34:18.352Z,4.03
2023-04-26T00:36:47.649Z,2.77
2023-04-26T00:39:16.221Z,3.67
2023-04-26T00:41:44.185Z,3.17
2023-04-26T00:44:12.087Z,2.70
2023-04-26T00:46:40.071Z,3.40
2023-04-26T00:49:08.132Z,3.67
2023-04-26T00:51:36.146Z,4.00
2023-04-26T00:54:05.547Z,3.17
2023-04-26T00:56:33.458Z,3.43
2023-04-26T00:59:01.454Z,4.03
2023-04-26T01:01:29.511Z,4.20
2023-04-26T01:03:57.719Z,3.17
2023-04-26T01:06:25.825Z,3.63
2023-04-26T01:08:53.995Z,3.67
2023-04-26T01:11:23.552Z,4.07
2023-04-26T01:13:51.561Z,4.17
2023-04-26T01:16:19.554Z,4.20
2023-04-26T01:18:52.729Z,5.07
2023-04-26T01:21:22.295Z,4.70
2023-04-26T01:23:51.669Z,5.67
2023-04-26T01:26:19.638Z,6.10
2023-04-26T01:28:49.645Z,5.10
2023-04-26T01:31:17.705Z,6.17
2023-04-26T01:33:45.766Z,6.10
2023-04-26T01:36:13.695Z,5.80
2023-04-26T01:38:41.629Z,5.80
2023-04-26T01:41:10.965Z,5.73
2023-04-26T01:43:38.923Z,5.50
2023-04-26T01:46:07.228Z,6.90
2023-04-26T01:48:35.153Z,5.43
2023-04-26T01:51:03.081Z,6.43
2023-04-26T01:53:30.997Z,5.23
2023-04-26T01:56:02.021Z,5.03
2023-04-26T01:58:31.347Z,5.63
2023-04-26T02:01:07.753Z,5.23
2023-04-26T02:03:35.902Z,5.30
2023-04-26T02:06:04.017Z,4.50
2023-04-26T02:08:31.945Z,5.17
2023-04-26T02:10:59.877Z,5.30
2023-04-26T02:13:27.797Z,4.60
2023-04-26T02:15:57.351Z,6.07
2023-04-26T02:18:25.267Z,5.00
2023-04-26T02:20:53.246Z,4.67
2023-04-26T02:23:21.160Z,4.17
2023-04-26T02:25:49.757Z,5.50
2023-04-26T02:28:17.685Z,4.50
2023-04-26T02:30:45.757Z,4.00
2023-04-26T02:33:15.163Z,3.90
2023-04-26T02:35:43.169Z,4.60
2023-04-26T02:38:11.114Z,4.80
2023-04-26T02:40:39.033Z,4.33
2023-04-26T02:43:07.216Z,4.50
2023-04-26T02:45:35.157Z,3.60
2023-04-26T02:48:03.318Z,4.33
2023-04-26T02:50:32.669Z,4.17
2023-04-26T02:53:00.933Z,4.20
2023-04-26T02:55:28.951Z,4.83
2023-04-26T02:57:56.899Z,4.70
2023-04-26T03:00:25.234Z,4.40
2023-04-26T03:02:53.377Z,3.73
2023-04-26T03:05:21.625Z,4.87
2023-04-26T03:07:51.023Z,3.80
2023-04-26T03:10:19.004Z,4.10
2023-04-26T03:12:46.927Z,4.33
2023-04-26T03:15:15.102Z,4.00
2023-04-26T03:17:43.412Z,4.80
2023-04-26T03:20:12.301Z,4.07
2023-04-26T03:22:40.245Z,4.40
2023-04-26T03:25:10.281Z,5.00
2023-04-26T03:27:38.256Z,6.87
2023-04-26T03:30:07.540Z,4.37
2023-04-26T03:32:35.519Z,5.17
2023-04-26T03:35:04.753Z,4.83
2023-04-26T03:37:32.859Z,5.43
2023-04-26T03:40:00.915Z,5.60
2023-04-26T03:42:30.213Z,6.10
2023-04-26T03:44:58.149Z,6.77
2023-04-26T03:47:26.243Z,6.00
2023-04-26T03:49:54.190Z,5.47
2023-04-26T03:52:22.179Z,5.50
2023-04-26T03:54:50.138Z,4.57
2023-04-26T03:57:18.104Z,5.30
2023-04-26T03:59:47.429Z,5.10
2023-04-26T04:02:15.420Z,4.27
2023-04-26T04:04:43.605Z,4.23
2023-04-26T04:07:11.798Z,4.70
2023-04-26T04:09:39.793Z,4.73
2023-04-26T04:12:08.045Z,4.37
2023-04-26T04:14:36.000Z,4.43
2023-04-26T04:17:05.879Z,3.87
2023-04-26T04:19:33.821Z,3.87
2023-04-26T04:22:01.789Z,4.13
2023-04-26T04:24:29.833Z,4.17
2023-04-26T04:26:57.999Z,3.97
2023-04-26T04:29:25.984Z,4.80
2023-04-26T04:31:53.960Z,5.53
2023-04-26T04:34:23.882Z,3.67
2023-04-26T04:36:51.869Z,4.87
2023-04-26T04:39:19.797Z,4.23
2023-04-26T04:41:48.997Z,3.70
2023-04-26T04:44:16.981Z,4.00
2023-04-26T04:46:44.996Z,3.50
2023-04-26T04:49:13.503Z,4.07
2023-04-26T04:51:42.790Z,3.63
2023-04-26T04:54:12.159Z,3.43
2023-04-26T04:56:40.166Z,3.70
2023-04-26T04:59:08.606Z,4.80
2023-04-26T05:01:37.146Z,4.23
2023-04-26T05:04:05.318Z,3.73
2023-04-26T05:06:33.418Z,2.90
2023-04-26T05:09:02.774Z,4.20
2023-04-26T05:11:30.709Z,2.60
2023-04-26T05:13:59.829Z,2.60
2023-04-26T05:16:27.853Z,3.00
2023-04-26T05:18:55.892Z,2.47
2023-04-26T05:21:24.212Z,3.20
2023-04-26T05:23:52.310Z,2.47
2023-04-26T05:26:21.751Z,3.20
2023-04-26T05:28:49.688Z,3.60
2023-04-26T05:31:17.869Z,2.40
2023-04-26T05:33:45.937Z,2.80
2023-04-26T05:36:13.941Z,2.80
2023-04-26T05:38:42.118Z,2.37
2023-04-26T05:41:10.074Z,3.17
2023-04-26T05:43:40.454Z,2.40
2023-04-26T05:46:08.451Z,2.70
2023-04-26T05:48:36.588Z,3.03
2023-04-26T05:51:04.617Z,2.67
2023-04-26T05:53:33.789Z,2.70
2023-04-26T05:56:01.760Z,3.27
2023-04-26T05:58:29.730Z,3.00
2023-04-26T06:00:59.053Z,2.87
2023-04-26T06:03:27.175Z,2.90
2023-04-26T06:05:55.383Z,3.33
2023-04-26T06:08:23.340Z,2.53
2023-04-26T06:10:51.356Z,2.40
2023-04-26T06:13:19.268Z,2.73
2023-04-26T06:15:47.237Z,3.10
2023-04-26T06:18:16.624Z,3.17
2023-04-26T06:20:44.581Z,2.03
2023-04-26T06:23:12.499Z,3.10
2023-04-26T06:25:44.774Z,2.80
2023-04-26T06:28:12.921Z,2.97
2023-04-26T06:30:41.418Z,2.80
2023-04-26T06:33:09.794Z,2.40
2023-04-26T06:35:42.190Z,3.70
2023-04-26T06:38:12.647Z,3.17
2023-04-26T06:40:40.593Z,3.07
2023-04-26T06:43:08.578Z,2.93
2023-04-26T06:45:37.080Z,2.90
2023-04-26T06:48:05.498Z,2.73
2023-04-26T06:50:33.509Z,2.20
2023-04-26T06:53:02.798Z,3.07
2023-04-26T06:55:30.733Z,2.40
2023-04-26T06:57:58.671Z,1.70
2023-04-26T07:00:26.851Z,1.87
2023-04-26T07:02:54.972Z,1.50
2023-04-26T07:05:23.389Z,1.90
2023-04-26T07:07:51.496Z,2.73
2023-04-26T07:10:21.285Z,2.10
2023-04-26T07:12:49.188Z,1.53
2023-04-26T07:15:17.170Z,1.67
2023-04-26T07:17:45.129Z,2.27
2023-04-26T07:20:15.657Z,2.00
2023-04-26T07:22:43.660Z,1.90
2023-04-26T07:25:11.900Z,1.70
2023-04-26T07:27:41.246Z,1.70
2023-04-26T07:30:10.604Z,1.67
2023-04-26T07:32:38.642Z,2.10
2023-04-26T07:35:08.686Z,1.60
2023-04-26T07:37:36.632Z,1.67
2023-04-26T07:40:08.371Z,1.60
2023-04-26T07:42:36.332Z,2.10
2023-04-26T07:45:06.557Z,2.03
2023-04-26T07:47:34.588Z,1.93
2023-04-26T07:50:02.540Z,1.83
2023-04-26T07:52:30.506Z,2.40
2023-04-26T07:54:58.457Z,1.87
2023-04-26T07:57:26.351Z,2.20
2023-04-26T07:59:54.313Z,2.30
2023-04-26T08:02:36.700Z,1.83
2023-04-26T08:05:11.729Z,1.60
2023-04-26T08:07:39.845Z,1.63
2023-04-26T08:10:08.569Z,2.50
2023-04-26T08:12:37.237Z,1.43
2023-04-26T08:15:05.820Z,1.40
2023-04-26T08:17:35.249Z,1.20
2023-04-26T08:20:05.069Z,2.30
2023-04-26T08:22:33.046Z,1.93
2023-04-26T08:25:00.961Z,1.67
2023-04-26T08:27:29.391Z,1.30
2023-04-26T08:29:57.443Z,2.17
2023-04-26T08:32:25.403Z,1.90
2023-04-26T08:34:55.426Z,1.73
2023-04-26T08:37:23.391Z,1.77
2023-04-26T08:39:51.363Z,1.77
2023-04-26T08:42:19.402Z,1.70
2023-04-26T08:44:47.539Z,2.57
2023-04-26T08:47:17.391Z,2.03
2023-04-26T08:49:47.600Z,1.27
2023-04-26T08:52:17.296Z,1.80
2023-04-26T08:54:45.624Z,1.70
2023-04-26T08:57:13.618Z,1.37
2023-04-26T08:59:41.568Z,1.40
2023-04-26T09:02:09.714Z,2.00
2023-04-26T09:04:38.200Z,1.27
2023-04-26T09:07:06.746Z,1.33
2023-04-26T09:09:37.903Z,1.20
2023-04-26T09:12:06.126Z,1.30
2023-04-26T09:14:34.113Z,1.10
2023-04-26T09:17:02.063Z,1.20
2023-04-26T09:19:37.056Z,1.37
2023-04-26T09:22:05.161Z,1.10
2023-04-26T09:24:47.708Z,1.00
2023-04-26T09:27:16.500Z,1.43
2023-04-26T09:30:00.656Z,0.90
2023-04-26T09:32:29.299Z,1.10
2023-04-26T09:34:57.296Z,0.83
2023-04-26T09:37:25.216Z,0.97
2023-04-26T09:39:54.692Z,1.17
2023-04-26T09:42:22.677Z,1.00
2023-04-26T09:44:51.903Z,1.03
2023-04-26T09:47:19.857Z,5.80
2023-04-26T09:49:48.909Z,2.00
2023-04-26T09:52:17.069Z,2.20
2023-04-26T09:54:47.038Z,1.60
2023-04-26T09:57:17.672Z,1.00
2023-04-26T09:59:46.927Z,1.50
2023-04-26T10:02:17.719Z,1.10
2023-04-26T10:04:47.065Z,1.07
2023-04-26T10:07:15.919Z,1.00
2023-04-26T10:09:43.969Z,1.10
2023-04-26T10:12:12.524Z,0.83
2023-04-26T10:14:41.874Z,1.20
2023-04-26T10:17:09.847Z,0.90
2023-04-26T10:19:37.972Z,0.77
2023-04-26T10:22:06.979Z,1.00
2023-04-26T10:24:35.876Z,0.77
2023-04-26T10:27:04.388Z,1.20
2023-04-26T10:30:09.233Z,0.97
2023-04-26T10:33:16.476Z,1.43
2023-04-26T10:36:04.594Z,0.83
2023-04-26T10:38:32.649Z,0.70
2023-04-26T10:41:32.339Z,1.87
2023-04-26T10:44:01.673Z,0.80
2023-04-26T10:46:40.654Z,0.90
2023-04-26T10:49:18.566Z,1.10
2023-04-26T10:52:10.077Z,0.90
2023-04-26T10:54:54.419Z,0.87
2023-04-26T10:57:22.781Z,1.60
2023-04-26T11:00:21.088Z,1.20
2023-04-26T11:02:59.619Z,0.60
2023-04-26T11:05:49.865Z,1.33
2023-04-26T11:08:18.277Z,1.00
2023-04-26T11:10:50.707Z,1.27
2023-04-26T11:13:19.473Z,0.90
2023-04-26T11:15:49.035Z,0.83
2023-04-26T11:18:21.980Z,0.90
2023-04-26T11:20:49.892Z,1.03
2023-04-26T11:23:19.437Z,0.80
2023-04-26T11:25:47.434Z,0.77
2023-04-26T11:28:15.383Z,0.80
2023-04-26T11:30:43.739Z,0.70
2023-04-26T11:33:17.792Z,0.80
2023-04-26T11:35:47.636Z,1.20
2023-04-26T11:38:15.648Z,0.90
2023-04-26T11:40:43.635Z,0.70
2023-04-26T11:43:11.894Z,0.60
2023-04-26T11:45:39.913Z,0.90
2023-04-26T11:48:09.065Z,0.60
2023-04-26T11:50:38.248Z,0.77
2023-04-26T11:53:08.845Z,1.40
2023-04-26T11:55:36.936Z,0.83
2023-04-26T11:58:11.318Z,0.70
2023-04-26T12:00:39.614Z,0.70
2023-04-26T12:03:11.185Z,0.77
2023-04-26T12:05:39.457Z,0.63
2023-04-26T12:08:09.158Z,0.90
2023-04-26T12:10:37.361Z,0.67
2023-04-26T12:13:05.356Z,0.80
2023-04-26T12:15:34.744Z,0.90
2023-04-26T12:18:08.797Z,1.07
2023-04-26T12:20:37.410Z,0.67
2023-04-26T12:23:06.782Z,0.93
2023-04-26T12:25:36.837Z,0.83
2023-04-26T12:28:05.206Z,1.00
2023-04-26T12:30:33.298Z,0.90
2023-04-26T12:33:14.981Z,1.10
2023-04-26T12:35:44.846Z,0.93
2023-04-26T12:38:13.682Z,0.70
2023-04-26T12:40:44.399Z,0.80
2023-04-26T12:43:12.352Z,1.40
2023-04-26T12:45:40.350Z,0.70
2023-04-26T12:48:08.360Z,0.63
2023-04-26T12:50:36.413Z,0.80
2023-04-26T12:53:04.381Z,0.70
2023-04-26T12:55:33.022Z,0.60
2023-04-26T12:58:02.468Z,0.90
2023-04-26T13:00:30.897Z,0.97
2023-04-26T13:02:59.071Z,0.90
2023-04-26T13:05:27.224Z,0.80
2023-04-26T13:07:55.143Z,1.00
2023-04-26T13:10:23.325Z,1.00
2023-04-26T13:12:51.378Z,1.40
2023-04-26T13:15:21.665Z,1.63
2023-04-26T13:17:49.941Z,0.83
2023-04-26T13:20:17.887Z,1.10
2023-04-26T13:22:45.910Z,0.80
2023-04-26T13:25:15.733Z,1.33
2023-04-26T13:27:43.689Z,1.27
2023-04-26T13:30:13.833Z,1.40
2023-04-26T13:32:43.245Z,1.20
2023-04-26T13:35:12.169Z,1.40
2023-04-26T13:37:40.321Z,1.10
2023-04-26T13:40:11.362Z,0.93
2023-04-26T13:42:39.363Z,1.17
2023-04-26T13:45:09.508Z,1.00
2023-04-26T13:47:37.535Z,1.00
2023-04-26T13:50:08.036Z,1.90
2023-04-26T13:52:36.324Z,1.10
2023-04-26T13:55:04.478Z,1.17
2023-04-26T13:57:32.940Z,1.80
2023-04-26T14:00:00.881Z,1.20
2023-04-26T14:02:29.393Z,1.10
2023-04-26T14:04:57.906Z,0.83
2023-04-26T14:07:27.460Z,1.30
2023-04-26T14:09:55.572Z,1.17
2023-04-26T14:12:23.553Z,0.83
2023-04-26T14:14:51.772Z,1.10
2023-04-26T14:17:19.741Z,0.90
2023-04-26T14:19:47.688Z,1.00
2023-04-26T14:22:17.642Z,1.10
2023-04-26T14:24:47.147Z,1.00
2023-04-26T14:27:15.072Z,1.17
2023-04-26T14:29:43.002Z,1.37
2023-04-26T14:32:11.183Z,1.07
2023-04-26T14:34:40.083Z,1.00
2023-04-26T14:37:08.061Z,1.53
2023-04-26T14:39:36.090Z,1.20
2023-04-26T14:42:05.887Z,0.90
2023-04-26T14:44:33.888Z,1.03
2023-04-26T14:47:01.813Z,1.13
2023-04-26T14:49:29.785Z,1.10
2023-04-26T14:51:57.735Z,1.20
2023-04-26T14:54:25.676Z,1.40
2023-04-26T14:56:53.858Z,1.00
2023-04-26T14:59:23.156Z,1.27
2023-04-26T15:01:53.348Z,0.90
2023-04-26T15:04:21.656Z,1.17
2023-04-26T15:06:49.719Z,1.30
2023-04-26T15:09:17.726Z,1.43
2023-04-26T15:11:45.692Z,1.43
2023-04-26T15:14:13.638Z,1.83
2023-04-26T15:16:42.985Z,1.37
2023-04-26T15:19:10.926Z,1.40
2023-04-26T15:21:38.865Z,1.10
2023-04-26T15:24:07.800Z,1.00
2023-04-26T15:26:35.776Z,0.97
2023-04-26T15:29:03.767Z,1.10
2023-04-26T15:31:32.078Z,0.90
2023-04-26T15:34:02.552Z,1.10
2023-04-26T15:36:30.564Z,1.33
2023-04-26T15:38:58.530Z,1.10
2023-04-26T15:41:26.491Z,1.10
2023-04-26T15:43:54.807Z,0.87
2023-04-26T15:46:22.957Z,1.10
2023-04-26T15:48:50.982Z,1.03
2023-04-26T15:51:20.322Z,1.77
2023-04-26T15:53:48.256Z,1.30
2023-04-26T15:56:16.488Z,1.10
2023-04-26T15:58:45.134Z,1.50
2023-04-26T16:01:13.182Z,1.23
2023-04-26T16:03:43.380Z,2.30
2023-04-26T16:06:13.609Z,1.63
2023-04-26T16:08:43.078Z,1.80
2023-04-26T16:11:11.280Z,1.27
2023-04-26T16:13:39.175Z,2.00
2023-04-26T16:16:08.116Z,1.60
2023-04-26T16:18:36.182Z,1.80
2023-04-26T16:21:07.588Z,1.97
2023-04-26T16:23:35.728Z,2.40
2023-04-26T16:26:05.069Z,1.97
2023-04-26T16:28:33.044Z,1.90
2023-04-26T16:31:01.081Z,2.07
2023-04-26T16:33:29.809Z,1.57
2023-04-26T16:35:57.805Z,1.63
2023-04-26T16:38:25.727Z,2.10
2023-04-26T16:41:01.405Z,2.00
2023-04-26T16:43:31.139Z,2.60
2023-04-26T16:45:59.999Z,2.70
2023-04-26T16:48:27.968Z,3.80
2023-04-26T16:50:55.887Z,4.17
2023-04-26T16:53:23.856Z,3.47
2023-04-26T16:55:52.262Z,2.80
2023-04-26T16:58:20.250Z,2.97
2023-04-26T17:00:49.587Z,3.30
2023-04-26T17:03:17.763Z,3.33
2023-04-26T17:05:47.507Z,3.40
2023-04-26T17:08:15.719Z,3.47
2023-04-26T17:10:43.698Z,3.40
2023-04-26T17:13:12.757Z,3.43
2023-04-26T17:15:40.913Z,4.03
2023-04-26T17:18:10.898Z,3.77
2023-04-26T17:20:38.978Z,4.00
2023-04-26T17:23:08.625Z,4.90
2023-04-26T17:25:36.655Z,3.60
2023-04-26T17:28:04.905Z,3.57
2023-04-26T17:30:32.814Z,3.40
2023-04-26T17:33:00.838Z,4.10
2023-04-26T17:35:30.270Z,5.53
2023-04-26T17:37:58.247Z,4.60
2023-04-26T17:40:26.204Z,4.60
2023-04-26T17:42:54.158Z,5.63
2023-04-26T17:45:22.212Z,5.17
2023-04-26T17:47:50.236Z,4.90
2023-04-26T17:50:20.998Z,6.20
2023-04-26T17:52:50.479Z,5.50
2023-04-26T17:55:18.627Z,5.97
2023-04-26T17:57:46.854Z,5.70
2023-04-26T18:00:16.052Z,5.43
2023-04-26T18:02:44.225Z,5.30
2023-04-26T18:05:13.401Z,4.93
2023-04-26T18:07:41.403Z,6.33
2023-04-26T18:10:11.471Z,6.37
2023-04-26T18:12:39.932Z,5.23
2023-04-26T18:15:09.066Z,6.30
2023-04-26T18:17:37.133Z,7.93
2023-04-26T18:20:06.673Z,6.47
2023-04-26T18:22:34.650Z,8.77
2023-04-26T18:25:03.122Z,6.77
2023-04-26T18:27:32.429Z,7.30
2023-04-26T18:30:00.426Z,5.47
2023-04-26T18:32:28.382Z,5.00
2023-04-26T18:34:56.313Z,3.60
2023-04-26T18:37:24.365Z,4.77
2023-04-26T18:39:52.307Z,5.07
2023-04-26T18:42:20.260Z,4.83
2023-04-26T18:44:49.629Z,4.23
2023-04-26T18:47:17.575Z,3.50
2023-04-26T18:49:45.558Z,3.83
2023-04-26T18:52:13.542Z,4.10
2023-04-26T18:54:41.672Z,3.63
2023-04-26T18:57:10.662Z,3.67
2023-04-26T18:59:38.766Z,4.17
2023-04-26T19:02:08.291Z,3.43
2023-04-26T19:04:36.548Z,3.60
2023-04-26T19:07:04.650Z,3.83
2023-04-26T19:09:42.725Z,3.70
2023-04-26T19:12:18.735Z,3.20
2023-04-26T19:14:46.677Z,3.90
2023-04-26T19:17:16.029Z,3.50
2023-04-26T19:19:44.026Z,4.03
2023-04-26T19:22:11.984Z,2.83
2023-04-26T19:24:39.916Z,3.53
2023-04-26T19:27:07.859Z,3.10
2023-04-26T19:29:36.086Z,3.80
2023-04-26T19:32:06.860Z,3.70
2023-04-26T19:34:38.878Z,3.73
2023-04-26T19:37:07.177Z,4.20
2023-04-26T19:39:35.129Z,2.60
2023-04-26T19:42:03.427Z,3.10
2023-04-26T19:44:31.835Z,3.67
2023-04-26T19:46:59.852Z,3.27
2023-04-26T19:49:29.137Z,3.40
2023-04-26T19:51:58.579Z,2.13
2023-04-26T19:54:26.645Z,2.43
2023-04-26T19:56:54.573Z,3.37
2023-04-26T19:59:22.641Z,3.27
2023-04-26T20:01:53.198Z,2.63
2023-04-26T20:04:22.026Z,2.97
2023-04-26T20:06:50.173Z,2.60
2023-04-26T20:09:19.535Z,2.30
2023-04-26T20:11:47.526Z,2.53
2023-04-26T20:14:16.150Z,2.23
2023-04-26T20:16:44.374Z,3.10
2023-04-26T20:19:12.401Z,2.97
2023-04-26T20:21:40.489Z,2.87
2023-04-26T20:24:08.919Z,3.40
2023-04-26T20:26:38.258Z,2.13
2023-04-26T20:29:06.770Z,2.23
2023-04-26T20:31:34.969Z,3.07
2023-04-26T20:34:03.002Z,2.70
2023-04-26T20:36:30.936Z,3.03
2023-04-26T20:38:58.921Z,2.97
2023-04-26T20:41:26.876Z,3.00
2023-04-26T20:43:56.573Z,2.13
2023-04-26T20:46:24.571Z,2.97
2023-04-26T20:48:52.562Z,3.17
2023-04-26T20:51:20.512Z,3.23
2023-04-26T20:53:48.465Z,3.00
2023-04-26T20:56:16.436Z,2.93
2023-04-26T20:58:44.437Z,2.80
2023-04-26T21:01:13.823Z,2.53
2023-04-26T21:03:42.023Z,2.60
2023-04-26T21:06:10.047Z,2.27
2023-04-26T21:08:38.010Z,2.27
2023-04-26T21:11:06.412Z,2.03
2023-04-26T21:13:34.372Z,2.07
2023-04-26T21:16:02.621Z,2.17
2023-04-26T21:18:31.931Z,2.10
2023-04-26T21:20:59.929Z,2.47
2023-04-26T21:23:28.072Z,2.50
2023-04-26T21:25:56.027Z,2.00
2023-04-26T21:28:24.001Z,2.10
2023-04-26T21:30:51.972Z,2.13
2023-04-26T21:33:20.036Z,1.90
2023-04-26T21:35:49.364Z,1.70
2023-04-26T21:38:17.324Z,1.40
2023-04-26T21:40:45.241Z,1.70
2023-04-26T21:43:15.549Z,1.50
2023-04-26T21:45:43.486Z,1.37
2023-04-26T21:48:11.403Z,1.40
2023-04-26T21:50:39.312Z,1.77
2023-04-26T21:53:08.631Z,1.30
2023-04-26T21:55:36.600Z,1.77
2023-04-26T21:58:04.515Z,1.57
2023-04-26T22:00:32.798Z,1.30
2023-04-26T22:03:01.171Z,1.60
2023-04-26T22:05:29.371Z,2.03
2023-04-26T22:07:57.325Z,1.50
2023-04-26T22:10:26.905Z,1.80
2023-04-26T22:12:54.873Z,1.53
2023-04-26T22:15:22.888Z,1.53
2023-04-26T22:17:50.986Z,1.37
2023-04-26T22:20:19.004Z,1.33
2023-04-26T22:22:47.099Z,1.40
2023-04-26T22:25:15.027Z,1.70
2023-04-26T22:27:44.339Z,1.27
2023-04-26T22:30:24.756Z,1.40
2023-04-26T22:32:54.721Z,1.93
2023-04-26T22:35:23.248Z,1.63
2023-04-26T22:37:51.239Z,1.37
2023-04-26T22:40:19.372Z,1.80
2023-04-26T22:42:48.655Z,1.80
2023-04-26T22:45:16.782Z,1.77
2023-04-26T22:47:44.774Z,1.83
2023-04-26T22:50:12.918Z,1.83
2023-04-26T22:52:41.090Z,1.70
2023-04-26T22:55:10.146Z,1.70
2023-04-26T22:57:39.267Z,1.93
2023-04-26T23:00:12.451Z,1.80
2023-04-26T23:02:40.810Z,1.60
2023-04-26T23:05:10.666Z,1.80
2023-04-26T23:07:38.652Z,2.23
2023-04-26T23:10:07.538Z,1.70
2023-04-26T23:12:36.045Z,1.73
2023-04-26T23:15:05.164Z,2.33
2023-04-26T23:17:34.855Z,3.00
2023-04-26T23:20:08.175Z,1.67
2023-04-26T23:22:36.225Z,2.07
2023-04-26T23:25:04.187Z,2.03
2023-04-26T23:27:32.140Z,1.57
2023-04-26T23:30:00.212Z,1.63
2023-04-26T23:32:28.243Z,1.17
2023-04-26T23:34:57.616Z,1.30
2023-04-26T23:37:25.561Z,1.27
2023-04-26T23:39:53.467Z,1.47
2023-04-26T23:42:21.584Z,1.70
2023-04-26T23:44:49.554Z,1.40
2023-04-26T23:47:17.489Z,1.67
2023-04-26T23:49:45.561Z,1.50
2023-04-26T23:52:14.907Z,1.23
2023-04-26T23:54:42.837Z,1.90
2023-04-26T23:57:10.753Z,1.53
2023-04-26T23:59:38.672Z,1.20
